createdAt,value
2019-02-26T00:07:18.233Z,91.41
2019-02-26T00:13:48.053Z,91.42
2019-02-26T00:20:17.551Z,92.01
2019-02-26T00:26:43.479Z,91.81
2019-02-26T00:33:09.530Z,91.76
2019-02-26T00:39:39.389Z,92.05
2019-02-26T00:45:45.806Z,92.33
2019-02-26T00:52:20.954Z,92.72
2019-02-26T00:58:50.314Z,92.61
2019-02-26T01:09:08.214Z,92.53
2019-02-26T01:15:32.710Z,92.74
2019-02-26T01:22:04.090Z,93.06
2019-02-26T01:28:33.499Z,92.95
2019-02-26T01:35:05.814Z,92.78
2019-02-26T01:41:33.957Z,93.25
2019-02-26T01:47:26.374Z,94.03
2019-02-26T01:53:55.517Z,93.49
2019-02-26T02:00:26.131Z,93.97
2019-02-26T02:10:33.395Z,93.66
2019-02-26T02:17:08.355Z,94.07
2019-02-26T02:23:38.748Z,94.66
2019-02-26T02:30:03.777Z,94.90
2019-02-26T02:36:33.845Z,94.72
2019-02-26T02:43:09.741Z,94.31
2019-02-26T02:48:57.977Z,94.35
2019-02-26T02:55:27.058Z,94.53
2019-02-26T03:01:57.005Z,94.66
2019-02-26T03:11:59.577Z,94.38
2019-02-26T03:18:27.482Z,94.60
2019-02-26T03:24:54.381Z,95.06
2019-02-26T03:31:19.998Z,95.08
2019-02-26T03:37:45.851Z,95.12
2019-02-26T03:43:41.713Z,94.50
2019-02-26T03:49:59.041Z,94.47
2019-02-26T03:56:24.080Z,95.27
2019-02-26T04:02:51.985Z,94.88
2019-02-26T04:13:05.980Z,94.64
2019-02-26T04:19:44.936Z,94.59
2019-02-26T04:26:50.098Z,94.83
2019-02-26T04:34:10.713Z,94.54
2019-02-26T04:41:22.579Z,94.64
2019-02-26T04:52:02.053Z,94.97
2019-02-26T04:58:29.856Z,94.88
2019-02-26T05:04:55.982Z,94.78
2019-02-26T05:14:56.603Z,95.13
2019-02-26T05:21:27.069Z,95.16
2019-02-26T05:27:50.988Z,94.88
2019-02-26T05:34:29.304Z,94.88
2019-02-26T05:41:08.273Z,94.78
2019-02-26T05:47:32.066Z,94.91
2019-02-26T05:54:01.747Z,94.91
2019-02-26T06:00:33.184Z,94.95
2019-02-26T06:06:59.890Z,94.89
2019-02-26T06:17:01.568Z,95.20
2019-02-26T06:23:28.270Z,95.57
2019-02-26T06:29:55.480Z,95.38
2019-02-26T06:36:21.506Z,95.08
2019-02-26T06:42:59.232Z,95.57
2019-02-26T06:49:02.621Z,96.03
2019-02-26T06:55:44.821Z,96.04
2019-02-26T07:02:28.270Z,95.87
2019-02-26T07:08:53.443Z,96.73
2019-02-26T07:18:54.582Z,96.96
2019-02-26T07:25:20.403Z,97.43
2019-02-26T07:31:47.244Z,98.52
2019-02-26T07:38:21.214Z,98.44
2019-02-26T07:44:46.963Z,98.37
2019-02-26T07:51:14.801Z,98.34
2019-02-26T07:57:41.254Z,98.78
2019-02-26T08:04:11.071Z,99.25
2019-02-26T08:10:50.388Z,99.89
2019-02-26T08:20:19.887Z,100.00
2019-02-26T08:26:49.944Z,100.00
2019-02-26T08:33:14.750Z,100.00
2019-02-26T08:39:57.408Z,100.00
2019-02-26T08:46:22.126Z,100.00
2019-02-26T08:52:50.038Z,100.00
2019-02-26T08:59:15.509Z,100.00
2019-02-26T09:05:42.030Z,100.00
2019-02-26T09:12:11.669Z,100.00
2019-02-26T09:22:14.970Z,100.00
2019-02-26T09:28:40.459Z,100.00
2019-02-26T09:35:24.659Z,100.00
2019-02-26T09:42:02.415Z,100.00
2019-02-26T09:48:42.563Z,100.00
2019-02-26T09:55:10.573Z,100.00
2019-02-26T10:01:37.860Z,100.00
2019-02-26T10:08:05.328Z,100.00
2019-02-26T10:14:31.106Z,100.00
2019-02-26T10:24:35.342Z,100.00
2019-02-26T10:31:03.875Z,100.00
2019-02-26T10:37:27.541Z,100.00
2019-02-26T10:44:06.492Z,100.00
2019-02-26T10:50:49.695Z,98.60
2019-02-26T10:57:20.023Z,97.45
2019-02-26T11:03:47.246Z,96.34
2019-02-26T11:10:20.817Z,94.34
2019-02-26T11:16:48.922Z,91.61
2019-02-26T11:26:51.599Z,88.27
2019-02-26T11:33:30.838Z,85.60
2019-02-26T11:39:57.710Z,84.24
2019-02-26T11:46:25.284Z,81.89
2019-02-26T11:52:54.956Z,79.95
2019-02-26T11:59:23.228Z,78.34
2019-02-26T12:05:50.864Z,77.04
2019-02-26T12:11:43.107Z,76.09
2019-02-26T12:18:13.072Z,75.10
2019-02-26T12:28:13.716Z,75.08
2019-02-26T12:34:41.331Z,74.23
2019-02-26T12:41:08.848Z,73.42
2019-02-26T12:47:35.852Z,71.87
2019-02-26T12:54:03.439Z,70.12
2019-02-26T13:00:34.720Z,66.15
2019-02-26T13:06:58.363Z,62.59
2019-02-26T13:13:07.133Z,62.90
2019-02-26T13:19:41.557Z,62.70
2019-02-26T13:29:57.126Z,59.13
2019-02-26T13:36:22.636Z,59.95
2019-02-26T13:42:56.585Z,57.13
2019-02-26T13:49:23.346Z,57.62
2019-02-26T13:55:53.302Z,55.97
2019-02-26T14:02:20.256Z,54.69
2019-02-26T14:08:47.857Z,54.42
2019-02-26T14:14:54.722Z,53.47
2019-02-26T14:21:22.353Z,54.11
2019-02-26T14:31:12.189Z,54.63
2019-02-26T14:37:38.856Z,52.88
2019-02-26T14:44:07.070Z,51.83
2019-02-26T14:50:33.127Z,53.63
2019-02-26T14:56:58.459Z,53.43
2019-02-26T15:03:26.351Z,53.98
2019-02-26T15:09:53.019Z,53.69
2019-02-26T15:16:19.449Z,55.25
2019-02-26T15:22:47.043Z,54.81
2019-02-26T15:32:50.017Z,55.03
2019-02-26T15:39:17.608Z,54.75
2019-02-26T15:45:51.583Z,54.47
2019-02-26T15:51:59.394Z,55.55
2019-02-26T15:58:29.018Z,57.05
2019-02-26T16:04:54.864Z,58.90
2019-02-26T16:11:21.904Z,58.64
2019-02-26T16:17:49.760Z,60.44
2019-02-26T16:24:17.585Z,60.95
2019-02-26T16:34:25.715Z,62.08
2019-02-26T16:41:04.914Z,64.17
2019-02-26T16:47:42.279Z,65.10
2019-02-26T16:53:34.279Z,66.33
2019-02-26T17:00:04.846Z,67.57
2019-02-26T17:06:30.665Z,67.53
2019-02-26T17:13:09.615Z,69.76
2019-02-26T17:19:35.433Z,70.13
2019-02-26T17:26:01.182Z,71.26
2019-02-26T17:36:17.355Z,72.49
2019-02-26T17:42:58.325Z,73.80
2019-02-26T17:49:28.816Z,74.69
2019-02-26T17:55:58.040Z,74.98
2019-02-26T18:02:38.011Z,76.26
2019-02-26T18:09:03.828Z,77.26
2019-02-26T18:15:31.465Z,77.43
2019-02-26T18:22:01.412Z,78.04
2019-02-26T18:28:47.396Z,77.92
2019-02-26T18:38:50.514Z,79.49
2019-02-26T18:45:27.985Z,80.50
2019-02-26T18:51:57.955Z,80.48
2019-02-26T18:58:37.284Z,81.43
2019-02-26T19:05:03.115Z,81.62
2019-02-26T19:11:28.921Z,82.07
2019-02-26T19:18:05.844Z,82.99
2019-02-26T19:24:18.531Z,83.00
2019-02-26T19:30:44.105Z,83.63
2019-02-26T19:40:47.321Z,84.11
2019-02-26T19:47:14.271Z,84.38
2019-02-26T19:53:53.902Z,84.68
2019-02-26T20:00:20.951Z,84.83
2019-02-26T20:06:48.787Z,85.09
2019-02-26T20:13:26.720Z,85.79
2019-02-26T20:19:52.457Z,85.90
2019-02-26T20:25:43.294Z,86.19
2019-02-26T20:32:12.618Z,86.83
2019-02-26T20:42:29.905Z,87.50
2019-02-26T20:49:12.269Z,87.39
2019-02-26T20:55:38.778Z,87.66
2019-02-26T21:02:04.237Z,87.97
2019-02-26T21:08:36.230Z,87.92
2019-02-26T21:15:04.136Z,88.24
2019-02-26T21:21:31.163Z,88.64
2019-02-26T21:27:23.707Z,88.69
2019-02-26T21:33:48.092Z,88.59
2019-02-26T21:43:14.062Z,88.52
2019-02-26T21:49:53.029Z,89.11
2019-02-26T21:56:18.833Z,89.72
2019-02-26T22:02:46.467Z,89.83
2019-02-26T22:09:30.644Z,89.81
2019-02-26T22:15:56.492Z,90.13
2019-02-26T22:22:26.233Z,90.02
2019-02-26T22:28:53.134Z,90.49
2019-02-26T22:35:31.758Z,91.10
2019-02-26T22:45:33.883Z,90.69
2019-02-26T22:51:34.662Z,90.55
2019-02-26T22:58:02.796Z,90.75
2019-02-26T23:56:25.602Z,91.90
